createdAt,value
2023-02-04T00:00:08.805Z,0.41
2023-02-04T00:01:48.549Z,0.39
2023-02-04T00:03:28.325Z,0.41
2023-02-04T00:05:08.085Z,0.38
2023-02-04T00:06:47.928Z,0.41
2023-02-04T00:08:27.634Z,0.4
2023-02-04T00:10:07.387Z,0.36
2023-02-04T00:11:47.155Z,0.39
2023-02-04T00:13:26.918Z,0.39
2023-02-04T00:15:06.692Z,0.39
2023-02-04T00:16:46.450Z,0.41
2023-02-04T00:18:26.251Z,0.4
2023-02-04T00:20:05.991Z,0.66
2023-02-04T00:21:45.760Z,0.41
2023-02-04T00:23:25.518Z,0.54
2023-02-04T00:25:05.294Z,0.44
2023-02-04T00:26:45.058Z,0.47
2023-02-04T00:28:24.822Z,0.58
2023-02-04T00:30:04.596Z,0.36
2023-02-04T00:31:44.355Z,0.5
2023-02-04T00:33:24.124Z,0.37
2023-02-04T00:35:03.894Z,0.51
2023-02-04T00:36:43.653Z,0.41
2023-02-04T00:38:23.427Z,0.36
2023-02-04T00:40:03.202Z,0.39
2023-02-04T00:41:42.969Z,0.4
2023-02-04T00:43:22.750Z,0.35
2023-02-04T00:45:02.505Z,0.36
2023-02-04T00:46:42.280Z,0.37
2023-02-04T00:48:22.032Z,0.35
2023-02-04T00:50:01.829Z,0.56
2023-02-04T00:51:41.569Z,0.35
2023-02-04T00:53:21.342Z,0.42
2023-02-04T00:55:01.114Z,0.56
2023-02-04T00:56:40.867Z,0.46
2023-02-04T00:58:20.650Z,0.35
2023-02-04T01:00:00.424Z,0.44
2023-02-04T01:01:40.186Z,0.26
2023-02-04T01:03:19.945Z,0.35
2023-02-04T01:04:59.739Z,0.33
2023-02-04T01:06:39.482Z,0.33
2023-02-04T01:08:19.261Z,0.41
2023-02-04T01:09:59.034Z,0.52
2023-02-04T01:11:38.770Z,0.47
2023-02-04T01:13:18.539Z,0.49
2023-02-04T01:14:58.313Z,0.24
2023-02-04T01:16:38.079Z,0.52
2023-02-04T01:18:17.852Z,0.35
2023-02-04T01:19:57.615Z,0.46
2023-02-04T01:21:37.395Z,0.32
2023-02-04T01:23:17.155Z,0.23
2023-02-04T01:24:56.957Z,0.49
2023-02-04T01:26:36.689Z,0.42
2023-02-04T01:28:16.461Z,0.36
2023-02-04T01:29:56.225Z,0.47
2023-02-04T01:31:35.986Z,0.46
2023-02-04T01:33:15.754Z,0.44
2023-02-04T01:34:55.524Z,0.45
2023-02-04T01:36:35.350Z,0.44
2023-02-04T01:38:15.067Z,0.46
2023-02-04T01:39:54.838Z,0.4
2023-02-04T01:41:34.588Z,0.29
2023-02-04T01:43:14.360Z,0.3
2023-02-04T01:44:54.131Z,0.48
2023-02-04T01:46:33.905Z,0.46
2023-02-04T01:48:13.662Z,0.43
2023-02-04T01:49:53.435Z,0.35
2023-02-04T01:51:33.194Z,0.26
2023-02-04T01:53:12.972Z,0.42
2023-02-04T01:54:52.760Z,0.42
2023-02-04T01:56:32.492Z,0.4
2023-02-04T01:58:12.259Z,0.39
2023-02-04T01:59:52.040Z,0.37
2023-02-04T02:01:31.797Z,0.41
2023-02-04T02:03:11.608Z,0.41
2023-02-04T02:04:51.343Z,0.42
2023-02-04T02:06:31.104Z,0.4
2023-02-04T02:08:10.891Z,0.45
2023-02-04T02:09:50.706Z,0.3
2023-02-04T02:11:30.398Z,0.47
2023-02-04T02:13:10.172Z,0.47
2023-02-04T02:14:49.954Z,0.36
2023-02-04T02:16:29.711Z,0.22
2023-02-04T02:18:09.488Z,0.32
2023-02-04T02:19:49.241Z,0.28
2023-02-04T02:21:29.005Z,0.29
2023-02-04T02:23:08.783Z,0.46
2023-02-04T02:24:48.568Z,0.37
2023-02-04T02:26:28.342Z,0.35
2023-02-04T02:28:08.088Z,0.48
2023-02-04T02:29:47.883Z,0.32
2023-02-04T02:31:27.617Z,0.32
2023-02-04T02:33:07.396Z,0.36
2023-02-04T02:34:47.155Z,0.39
2023-02-04T02:36:26.914Z,0.42
2023-02-04T02:38:06.664Z,0.33
2023-02-04T02:39:46.495Z,0.3
2023-02-04T02:41:26.209Z,0.34
2023-02-04T02:43:05.984Z,0.26
2023-02-04T02:44:45.741Z,0.32
2023-02-04T02:46:25.528Z,0.36
2023-02-04T02:48:05.283Z,0.28
2023-02-04T02:49:45.057Z,0.24
2023-02-04T02:51:24.819Z,0.3
2023-02-04T02:53:04.583Z,0.39
2023-02-04T02:54:44.348Z,0.25
2023-02-04T02:56:24.146Z,0.32
2023-02-04T02:58:03.873Z,0.38
2023-02-04T02:59:43.644Z,0.35
2023-02-04T03:01:23.413Z,0.32
2023-02-04T03:03:03.167Z,0.34
2023-02-04T03:04:42.957Z,0.32
2023-02-04T03:06:22.710Z,0.37
2023-02-04T03:08:02.489Z,0.36
2023-02-04T03:09:42.241Z,0.35
2023-02-04T03:11:22.008Z,0.34
2023-02-04T03:13:01.787Z,0.34
2023-02-04T03:14:41.563Z,0.37
2023-02-04T03:16:21.316Z,0.35
2023-02-04T03:18:01.079Z,0.31
2023-02-04T03:19:40.845Z,0.31
2023-02-04T03:21:20.617Z,0.32
2023-02-04T03:23:00.388Z,0.33
2023-02-04T03:24:40.166Z,0.3
2023-02-04T03:26:19.927Z,0.34
2023-02-04T03:27:59.700Z,0.32
2023-02-04T03:29:39.462Z,0.32
2023-02-04T03:31:19.216Z,0.3
2023-02-04T03:32:59.041Z,0.33
2023-02-04T03:34:38.754Z,0.33
2023-02-04T03:36:18.524Z,0.33
2023-02-04T03:37:58.344Z,0.32
2023-02-04T03:39:38.081Z,0.32
2023-02-04T03:41:17.830Z,0.3
2023-02-04T03:42:57.596Z,0.29
2023-02-04T03:44:37.358Z,0.33
2023-02-04T03:46:17.143Z,0.28
2023-02-04T03:47:56.901Z,0.28
2023-02-04T03:49:36.672Z,0.3
2023-02-04T03:51:16.434Z,0.32
2023-02-04T03:52:56.208Z,0.31
2023-02-04T03:54:35.969Z,0.32
2023-02-04T03:56:15.758Z,0.29
2023-02-04T03:57:55.515Z,0.32
2023-02-04T03:59:35.299Z,0.27
2023-02-04T04:01:15.036Z,0.3
2023-02-04T04:02:54.819Z,0.27
2023-02-04T04:04:34.581Z,0.3
2023-02-04T04:06:14.345Z,0.3
2023-02-04T04:07:54.112Z,0.3
2023-02-04T04:09:33.874Z,0.31
2023-02-04T04:11:13.650Z,0.23
2023-02-04T04:12:53.450Z,0.29
2023-02-04T04:14:33.189Z,0.27
2023-02-04T04:16:12.947Z,0.23
2023-02-04T04:17:52.723Z,0.23
2023-02-04T04:19:32.474Z,0.26
2023-02-04T04:21:12.249Z,0.26
2023-02-04T04:22:52.013Z,0.24
2023-02-04T04:24:31.769Z,0.26
2023-02-04T04:26:11.549Z,0.27
2023-02-04T04:27:51.311Z,0.24
2023-02-04T04:29:31.091Z,0.24
2023-02-04T04:31:10.848Z,0.25
2023-02-04T04:32:50.623Z,0.23
2023-02-04T04:34:30.397Z,0.23
2023-02-04T04:36:10.155Z,0.22
2023-02-04T04:37:49.916Z,0.19
2023-02-04T04:39:29.677Z,0.18
2023-02-04T04:41:09.436Z,0.21
2023-02-04T04:42:49.215Z,0.28
2023-02-04T04:44:28.982Z,0.26
2023-02-04T04:46:08.762Z,0.23
2023-02-04T04:47:48.504Z,0.25
2023-02-04T04:49:28.281Z,0.22
2023-02-04T04:51:08.059Z,0.24
2023-02-04T04:52:47.809Z,0.22
2023-02-04T04:54:27.587Z,0.27
2023-02-04T04:56:07.343Z,0.24
2023-02-04T04:57:47.119Z,0.28
2023-02-04T04:59:26.875Z,0.27
2023-02-04T05:01:06.650Z,0.27
2023-02-04T05:02:46.432Z,0.22
2023-02-04T05:04:26.186Z,0.24
2023-02-04T05:06:06.026Z,0.26
2023-02-04T05:07:45.722Z,0.26
2023-02-04T05:09:25.498Z,0.26
2023-02-04T05:11:05.293Z,0.29
2023-02-04T05:12:45.034Z,0.28
2023-02-04T05:14:24.830Z,0.24
2023-02-04T05:16:04.563Z,0.24
2023-02-04T05:17:44.331Z,0.24
2023-02-04T05:19:24.163Z,0.17
2023-02-04T05:21:03.870Z,0.17
2023-02-04T05:22:43.632Z,0.2
2023-02-04T05:24:23.407Z,0.18
2023-02-04T05:26:03.170Z,0.19
2023-02-04T05:27:42.937Z,0.2
2023-02-04T05:29:22.705Z,0.19
2023-02-04T05:31:02.461Z,0.2
2023-02-04T05:32:42.231Z,0.18
2023-02-04T05:34:22.002Z,0.19
2023-02-04T05:36:01.771Z,0.22
2023-02-04T05:37:41.545Z,0.22
2023-02-04T05:39:21.298Z,0.23
2023-02-04T05:41:01.070Z,0.27
2023-02-04T05:42:40.831Z,0.3
2023-02-04T05:44:20.614Z,0.3
2023-02-04T05:46:00.371Z,0.33
2023-02-04T05:47:40.131Z,0.37
2023-02-04T05:49:19.899Z,0.42
2023-02-04T05:50:59.684Z,0.46
2023-02-04T05:52:39.430Z,0.52
2023-02-04T05:54:19.189Z,0.65
2023-02-04T05:55:58.968Z,0.82
2023-02-04T05:57:38.730Z,0.97
2023-02-04T05:59:18.514Z,1.24
2023-02-04T06:00:58.409Z,1.61
2023-02-04T06:02:38.032Z,2.05
2023-02-04T06:04:17.798Z,2.67
2023-02-04T06:05:57.565Z,3.56
2023-02-04T06:07:37.354Z,4.73
2023-02-04T06:09:17.100Z,6.36
2023-02-04T06:10:56.879Z,8.46
2023-02-04T06:12:36.685Z,10.95
2023-02-04T06:14:16.468Z,14.05
2023-02-04T06:15:56.182Z,17.91
2023-02-04T06:17:35.922Z,22.79
2023-02-04T06:19:15.693Z,25.99
2023-02-04T06:20:55.455Z,26.79
2023-02-04T06:22:35.231Z,26.81
2023-02-04T06:24:14.996Z,26.85
2023-02-04T06:25:54.785Z,26.87
2023-02-04T06:27:34.537Z,26.87
2023-02-04T06:29:14.297Z,26.89
2023-02-04T06:30:54.058Z,26.89
2023-02-04T06:32:33.828Z,26.92
2023-02-04T06:34:13.620Z,26.9
2023-02-04T06:35:53.369Z,26.92
2023-02-04T06:37:33.200Z,26.92
2023-02-04T06:39:12.901Z,26.92
2023-02-04T06:40:52.885Z,26.92
2023-02-04T06:42:32.479Z,26.94
2023-02-04T06:44:12.192Z,26.94
2023-02-04T06:45:51.977Z,26.96
2023-02-04T06:47:31.739Z,26.95
2023-02-04T06:49:11.499Z,26.97
2023-02-04T06:50:51.307Z,26.99
2023-02-04T06:52:31.031Z,27
2023-02-04T06:54:10.819Z,27
2023-02-04T06:55:50.571Z,27.03
2023-02-04T06:57:30.359Z,27.04
2023-02-04T06:59:10.116Z,27.06
2023-02-04T07:00:49.878Z,27.06
2023-02-04T07:02:29.646Z,27.07
2023-02-04T07:04:09.423Z,27.1
2023-02-04T07:05:49.205Z,27.11
2023-02-04T07:07:28.957Z,27.12
2023-02-04T07:09:08.731Z,27.13
2023-02-04T07:10:48.493Z,27.13
2023-02-04T07:12:28.250Z,27.15
2023-02-04T07:14:08.032Z,27.2
2023-02-04T07:15:47.805Z,27.19
2023-02-04T07:17:27.559Z,27.2
2023-02-04T07:19:07.350Z,27.22
2023-02-04T07:20:47.106Z,35.16
2023-02-04T07:22:26.914Z,35.15
2023-02-04T07:24:06.674Z,27.29
2023-02-04T07:25:46.413Z,27.29
2023-02-04T07:27:26.192Z,27.31
2023-02-04T07:29:05.951Z,27.33
2023-02-04T07:30:45.757Z,27.35
2023-02-04T07:32:25.512Z,27.37
2023-02-04T07:34:05.276Z,27.38
2023-02-04T07:35:45.038Z,27.4
2023-02-04T07:37:24.875Z,27.42
2023-02-04T07:39:04.564Z,27.35
2023-02-04T07:40:44.410Z,27.56
2023-02-04T07:42:24.117Z,27.53
2023-02-04T07:44:03.964Z,27.53
2023-02-04T07:45:43.645Z,27.57
2023-02-04T07:47:23.490Z,27.63
2023-02-04T07:49:03.270Z,27.63
2023-02-04T07:50:42.979Z,27.63
2023-02-04T07:52:22.732Z,27.65
2023-02-04T07:54:02.490Z,27.67
2023-02-04T07:55:42.272Z,27.69
2023-02-04T07:57:22.042Z,27.7
2023-02-04T07:59:01.808Z,27.72
2023-02-04T08:00:41.584Z,27.77
2023-02-04T08:02:21.393Z,27.78
2023-02-04T08:04:01.235Z,27.79
2023-02-04T08:05:41.019Z,27.83
2023-02-04T08:07:20.711Z,27.83
2023-02-04T08:09:00.466Z,27.86
2023-02-04T08:10:40.230Z,27.87
2023-02-04T08:12:19.988Z,27.9
2023-02-04T08:13:59.794Z,27.9
2023-02-04T08:15:39.503Z,27.93
2023-02-04T08:17:19.294Z,27.95
2023-02-04T08:18:59.097Z,27.98
2023-02-04T08:20:38.882Z,28
2023-02-04T08:22:18.591Z,48.32
2023-02-04T08:23:58.350Z,28.11
2023-02-04T08:25:38.139Z,28.12
2023-02-04T08:27:17.927Z,28.14
2023-02-04T08:28:57.657Z,28.15
2023-02-04T08:30:37.445Z,28.15
2023-02-04T08:32:17.193Z,28.22
2023-02-04T08:33:56.969Z,28.22
2023-02-04T08:35:36.743Z,28.25
2023-02-04T08:37:16.514Z,28.27
2023-02-04T08:38:56.292Z,28.29
2023-02-04T08:40:36.101Z,28.3
2023-02-04T08:42:15.814Z,28.34
2023-02-04T08:43:55.596Z,28.36
2023-02-04T08:45:35.361Z,28.38
2023-02-04T08:47:15.146Z,28.41
2023-02-04T08:48:54.905Z,28.43
2023-02-04T08:50:34.716Z,28.45
2023-02-04T08:52:14.459Z,28.49
2023-02-04T08:53:54.243Z,28.51
2023-02-04T08:55:34.007Z,28.58
2023-02-04T08:57:13.785Z,28.81
2023-02-04T08:58:53.557Z,29.46
2023-02-04T09:00:33.317Z,31.26
2023-02-04T09:02:13.085Z,42.94
2023-02-04T09:03:52.854Z,43.11
2023-02-04T09:05:32.687Z,51.17
2023-02-04T09:07:12.397Z,90.35
2023-02-04T09:08:52.175Z,87.81
2023-02-04T09:10:31.951Z,90.48
2023-02-04T09:12:11.701Z,90.41
2023-02-04T09:13:51.546Z,90.65
2023-02-04T09:15:31.301Z,90.56
2023-02-04T09:17:11.028Z,90.51
2023-02-04T09:18:50.802Z,90.43
2023-02-04T09:20:30.567Z,90.04
2023-02-04T09:22:10.339Z,90.46
2023-02-04T09:23:50.113Z,88.59
2023-02-04T09:25:29.877Z,90.4
2023-02-04T09:27:09.648Z,90.42
2023-02-04T09:28:49.412Z,90.34
2023-02-04T09:30:29.184Z,87.35
2023-02-04T09:32:08.969Z,89.88
2023-02-04T09:33:48.742Z,90.2
2023-02-04T09:35:28.511Z,90.58
2023-02-04T09:37:08.269Z,90.7
2023-02-04T09:38:48.096Z,90.22
2023-02-04T09:40:27.810Z,90.23
2023-02-04T09:42:07.593Z,90.04
2023-02-04T09:43:47.358Z,90
2023-02-04T09:45:27.176Z,89.81
2023-02-04T09:47:06.893Z,88.31
2023-02-04T09:48:46.677Z,89.71
2023-02-04T09:50:26.465Z,89.69
2023-02-04T09:52:06.223Z,89.8
2023-02-04T09:53:46.000Z,83.33
2023-02-04T09:55:25.748Z,89.93
2023-02-04T09:57:05.512Z,84.76
2023-02-04T09:58:45.288Z,86.56
2023-02-04T10:00:25.074Z,89.32
2023-02-04T10:02:04.911Z,89.22
2023-02-04T10:03:44.600Z,89.02
2023-02-04T10:05:24.392Z,88.99
2023-02-04T10:07:04.120Z,89.42
2023-02-04T10:08:43.907Z,89.77
2023-02-04T10:10:23.675Z,88.67
2023-02-04T10:12:03.496Z,89.19
2023-02-04T10:13:43.189Z,89.26
2023-02-04T10:15:22.968Z,84.56
2023-02-04T10:17:02.895Z,85.49
2023-02-04T10:18:42.557Z,91.2
2023-02-04T10:20:22.302Z,90.1
2023-02-04T10:22:02.140Z,90.24
2023-02-04T10:23:41.817Z,84.45
2023-02-04T10:25:21.577Z,85.03
2023-02-04T10:27:01.354Z,90.94
2023-02-04T10:28:41.129Z,90.68
2023-02-04T10:30:20.924Z,88.91
2023-02-04T10:32:00.767Z,84.11
2023-02-04T10:33:40.453Z,85.42
2023-02-04T10:35:20.211Z,91.19
2023-02-04T10:37:00.062Z,90.73
2023-02-04T10:38:39.767Z,89.83
2023-02-04T10:40:19.527Z,88.87
2023-02-04T10:41:59.315Z,82.63
2023-02-04T10:43:39.061Z,83.11
2023-02-04T10:45:18.910Z,83.45
2023-02-04T10:46:58.637Z,85.07
2023-02-04T10:48:38.367Z,86.35
2023-02-04T10:50:18.175Z,91.53
2023-02-04T10:51:57.936Z,90.88
2023-02-04T10:53:37.679Z,89.91
2023-02-04T10:55:17.571Z,85.68
2023-02-04T10:56:57.243Z,83.78
2023-02-04T10:58:37.016Z,86.19
2023-02-04T11:00:16.831Z,90.67
2023-02-04T11:01:56.535Z,90.06
2023-02-04T11:03:36.319Z,89.61
2023-02-04T11:05:16.080Z,84.16
2023-02-04T11:06:55.991Z,85.64
2023-02-04T11:08:35.664Z,90.42
2023-02-04T11:10:15.457Z,85.67
2023-02-04T11:11:55.180Z,84.58
2023-02-04T11:13:34.933Z,84.69
2023-02-04T11:15:14.712Z,85.69
2023-02-04T11:16:54.471Z,83.72
2023-02-04T11:18:34.253Z,84.23
2023-02-04T11:20:14.082Z,89.58
2023-02-04T11:21:53.790Z,86.15
2023-02-04T11:23:33.627Z,91.5
2023-02-04T11:25:13.326Z,90.87
2023-02-04T11:26:53.101Z,90.09
2023-02-04T11:28:32.870Z,89.45
2023-02-04T11:30:12.685Z,87.49
2023-02-04T11:31:52.397Z,82.3
2023-02-04T11:33:32.186Z,82.65
2023-02-04T11:35:11.939Z,83.14
2023-02-04T11:36:51.722Z,83.52
2023-02-04T11:38:31.487Z,83.99
2023-02-04T11:40:11.300Z,84.22
2023-02-04T11:41:51.023Z,84.45
2023-02-04T11:43:30.848Z,84.37
2023-02-04T11:45:10.576Z,87.36
2023-02-04T11:46:50.363Z,92.15
2023-02-04T11:48:30.109Z,91.34
2023-02-04T11:50:09.913Z,90.7
2023-02-04T11:51:49.653Z,89.84
2023-02-04T11:53:29.423Z,88.67
2023-02-04T11:55:09.178Z,85.49
2023-02-04T11:56:48.951Z,83.34
2023-02-04T11:58:28.723Z,83.04
2023-02-04T12:00:08.494Z,85.81
2023-02-04T12:01:48.263Z,86.07
2023-02-04T12:03:28.297Z,86.97
2023-02-04T12:05:07.800Z,87.31
2023-02-04T12:06:47.573Z,87.98
2023-02-04T12:08:27.346Z,88.1
2023-02-04T12:10:07.124Z,88.02
2023-02-04T12:11:46.918Z,87.97
2023-02-04T12:13:26.670Z,88.19
2023-02-04T12:15:06.435Z,86.92
2023-02-04T12:16:46.191Z,86.09
2023-02-04T12:18:25.969Z,86.17
2023-02-04T12:20:05.754Z,86.87
2023-02-04T12:21:45.522Z,87.53
2023-02-04T12:23:25.301Z,87.03
2023-02-04T12:25:05.054Z,86.56
2023-02-04T12:26:44.840Z,86.49
2023-02-04T12:28:24.598Z,86.13
2023-02-04T12:30:04.356Z,85.87
2023-02-04T12:31:44.126Z,85.85
2023-02-04T12:33:23.917Z,86.05
2023-02-04T12:35:03.669Z,85.66
2023-02-04T12:36:43.432Z,85.41
2023-02-04T12:38:23.271Z,84.81
2023-02-04T12:40:02.978Z,83.65
2023-02-04T12:41:42.818Z,83.27
2023-02-04T12:43:22.517Z,84.24
2023-02-04T12:45:02.283Z,84.63
2023-02-04T12:46:42.065Z,84.99
2023-02-04T12:48:21.836Z,85.59
2023-02-04T12:50:01.656Z,86.14
2023-02-04T12:51:41.376Z,86.87
2023-02-04T12:53:21.137Z,87.3
2023-02-04T12:55:00.912Z,87.2
2023-02-04T12:56:40.676Z,86.81
2023-02-04T12:58:20.443Z,86.54
2023-02-04T13:00:00.241Z,86.53
2023-02-04T13:01:39.989Z,86.56
2023-02-04T13:03:19.754Z,86.5
2023-02-04T13:04:59.532Z,86.49
2023-02-04T13:06:39.302Z,86.17
2023-02-04T13:08:19.066Z,85.39
2023-02-04T13:09:58.826Z,85.09
2023-02-04T13:11:38.618Z,86.46
2023-02-04T13:13:18.383Z,90.54
2023-02-04T13:14:58.171Z,90.09
2023-02-04T13:16:37.925Z,86.43
2023-02-04T13:18:17.694Z,88.4
2023-02-04T13:19:57.559Z,89.65
2023-02-04T13:21:37.240Z,87.25
2023-02-04T13:23:17.084Z,86.39
2023-02-04T13:24:56.766Z,86.04
2023-02-04T13:26:36.540Z,86.3
2023-02-04T13:28:16.306Z,86.51
2023-02-04T13:29:56.125Z,86.97
2023-02-04T13:31:35.853Z,86.49
2023-02-04T13:33:15.619Z,86
2023-02-04T13:34:55.459Z,87.67
2023-02-04T13:36:35.231Z,90.92
2023-02-04T13:38:15.062Z,86.15
2023-02-04T13:39:54.712Z,86.28
2023-02-04T13:41:34.484Z,89.18
2023-02-04T13:43:14.270Z,87.39
2023-02-04T13:44:54.032Z,92.04
2023-02-04T13:46:33.826Z,91.07
2023-02-04T13:48:13.574Z,89.36
2023-02-04T13:49:53.347Z,89.52
2023-02-04T13:51:33.124Z,89.1
2023-02-04T13:53:12.876Z,84.96
2023-02-04T13:54:52.646Z,85.15
2023-02-04T13:56:32.420Z,85.34
2023-02-04T13:58:12.199Z,87.01
2023-02-04T13:59:51.980Z,87.99
2023-02-04T14:01:31.723Z,84.79
2023-02-04T14:03:11.495Z,86.21
2023-02-04T14:04:51.270Z,84.96
2023-02-04T14:06:31.038Z,86.45
2023-02-04T14:08:10.818Z,84.26
2023-02-04T14:09:50.587Z,90.44
2023-02-04T14:11:30.356Z,90.05
2023-02-04T14:13:10.110Z,89.88
2023-02-04T14:14:49.899Z,89.53
2023-02-04T14:16:29.659Z,89.23
2023-02-04T14:18:09.429Z,84.48
2023-02-04T14:19:49.205Z,87.11
2023-02-04T14:21:28.991Z,80.91
2023-02-04T14:23:08.748Z,82.47
2023-02-04T14:24:48.505Z,80.82
2023-02-04T14:26:28.277Z,82.13
2023-02-04T14:28:08.051Z,90.88
2023-02-04T14:29:47.818Z,83.58
2023-02-04T14:31:27.601Z,84.13
2023-02-04T14:33:07.360Z,84.09
2023-02-04T14:34:47.127Z,83.64
2023-02-04T14:36:26.892Z,83.43
2023-02-04T14:38:06.670Z,83.28
2023-02-04T14:39:46.443Z,83.16
2023-02-04T14:41:26.195Z,83.56
2023-02-04T14:43:05.980Z,83.66
2023-02-04T14:44:45.769Z,83.53
2023-02-04T14:46:25.518Z,82.57
2023-02-04T14:48:05.297Z,81.69
2023-02-04T14:49:45.070Z,81.05
2023-02-04T14:51:24.873Z,80.66
2023-02-04T14:53:04.605Z,80.96
2023-02-04T14:54:44.367Z,81.94
2023-02-04T14:56:24.180Z,83.58
2023-02-04T14:58:03.919Z,84.55
2023-02-04T14:59:43.698Z,84.77
2023-02-04T15:01:23.450Z,84.69
2023-02-04T15:03:03.230Z,84.79
2023-02-04T15:04:43.032Z,84.62
2023-02-04T15:06:22.769Z,83.78
2023-02-04T15:08:02.538Z,83.05
2023-02-04T15:09:42.313Z,84.71
2023-02-04T15:11:22.095Z,81.72
2023-02-04T15:13:01.848Z,80.74
2023-02-04T15:14:41.609Z,79.12
2023-02-04T15:16:21.394Z,83.39
2023-02-04T15:18:01.188Z,83.21
2023-02-04T15:19:40.983Z,81.28
2023-02-04T15:21:20.689Z,83
2023-02-04T15:23:00.478Z,81.87
2023-02-04T15:24:40.244Z,72.73
2023-02-04T15:26:20.008Z,60.14
2023-02-04T15:27:59.763Z,47.68
2023-02-04T15:29:39.544Z,37.53
2023-02-04T15:31:19.318Z,36.11
2023-02-04T15:32:59.094Z,35.53
2023-02-04T15:34:38.846Z,34.78
2023-02-04T15:36:18.622Z,28.63
2023-02-04T15:37:58.401Z,28.56
2023-02-04T15:39:38.175Z,28.51
2023-02-04T15:41:17.955Z,28.46
2023-02-04T15:42:57.702Z,33.38
2023-02-04T15:44:37.469Z,33.05
2023-02-04T15:46:17.254Z,28.35
2023-02-04T15:47:57.003Z,28.3
2023-02-04T15:49:36.779Z,28.27
2023-02-04T15:51:16.549Z,28.21
2023-02-04T15:52:56.301Z,28.2
2023-02-04T15:54:36.090Z,28.17
2023-02-04T15:56:15.844Z,28.15
2023-02-04T15:57:55.638Z,28.1
2023-02-04T15:59:35.389Z,28.08
2023-02-04T16:01:15.172Z,28.05
2023-02-04T16:02:54.923Z,28
2023-02-04T16:04:34.690Z,28
2023-02-04T16:06:14.445Z,27.96
2023-02-04T16:07:54.246Z,27.93
2023-02-04T16:09:33.998Z,27.9
2023-02-04T16:11:13.753Z,27.86
2023-02-04T16:12:53.524Z,27.83
2023-02-04T16:14:33.287Z,27.8
2023-02-04T16:16:13.076Z,27.74
2023-02-04T16:17:52.874Z,27.7
2023-02-04T16:19:32.629Z,27.64
2023-02-04T16:21:12.357Z,27.5
2023-02-04T16:22:52.136Z,23.09
2023-02-04T16:24:31.897Z,18.5
2023-02-04T16:26:11.711Z,14.79
2023-02-04T16:27:51.433Z,11.95
2023-02-04T16:29:31.186Z,9.85
2023-02-04T16:31:10.973Z,8.22
2023-02-04T16:32:50.749Z,6.96
2023-02-04T16:34:30.526Z,5.86
2023-02-04T16:36:10.249Z,5.02
2023-02-04T16:37:50.081Z,4.19
2023-02-04T16:39:29.823Z,3.5
2023-02-04T16:41:09.574Z,2.88
2023-02-04T16:42:49.349Z,2.31
2023-02-04T16:44:29.090Z,1.82
2023-02-04T16:46:08.865Z,1.44
2023-02-04T16:47:48.646Z,1.13
2023-02-04T16:49:28.395Z,0.96
2023-02-04T16:51:08.162Z,0.78
2023-02-04T16:52:47.968Z,0.65
2023-02-04T16:54:27.689Z,0.56
2023-02-04T16:56:07.471Z,0.48
2023-02-04T16:57:47.243Z,0.42
2023-02-04T16:59:26.997Z,0.39
2023-02-04T17:01:06.789Z,0.38
2023-02-04T17:02:46.563Z,0.36
2023-02-04T17:04:26.320Z,0.34
2023-02-04T17:06:06.094Z,0.28
2023-02-04T17:07:45.835Z,0.3
2023-02-04T17:09:25.605Z,0.3
2023-02-04T17:11:05.368Z,0.29
2023-02-04T17:12:45.138Z,0.25
2023-02-04T17:14:24.905Z,0.29
2023-02-04T17:16:04.688Z,0.26
2023-02-04T17:17:44.448Z,0.29
2023-02-04T17:19:24.200Z,0.25
2023-02-04T17:21:04.036Z,0.26
2023-02-04T17:22:43.737Z,0.25
2023-02-04T17:24:23.537Z,0.24
2023-02-04T17:26:03.288Z,0.25
2023-02-04T17:27:43.130Z,0.28
2023-02-04T17:29:22.816Z,0.28
2023-02-04T17:31:02.578Z,0.26
2023-02-04T17:32:42.338Z,0.24
2023-02-04T17:34:22.127Z,0.28
2023-02-04T17:36:01.888Z,0.28
2023-02-04T17:37:41.645Z,0.26
2023-02-04T17:39:21.408Z,0.28
2023-02-04T17:41:01.203Z,0.28
2023-02-04T17:42:40.950Z,0.3
2023-02-04T17:44:20.731Z,0.3
2023-02-04T17:46:00.493Z,0.3
2023-02-04T17:47:40.268Z,0.3
2023-02-04T17:49:20.017Z,0.29
2023-02-04T17:50:59.792Z,0.27
2023-02-04T17:52:39.552Z,0.32
2023-02-04T17:54:19.377Z,0.28
2023-02-04T17:55:59.092Z,0.32
2023-02-04T17:57:38.857Z,0.32
2023-02-04T17:59:18.642Z,0.3
2023-02-04T18:00:58.408Z,0.28
2023-02-04T18:02:38.170Z,0.33
2023-02-04T18:04:17.914Z,0.33
2023-02-04T18:05:57.798Z,0.32
2023-02-04T18:07:37.477Z,0.29
2023-02-04T18:09:17.252Z,0.3
2023-02-04T18:10:56.994Z,0.3
2023-02-04T18:12:36.771Z,0.34
2023-02-04T18:14:16.524Z,0.32
2023-02-04T18:15:56.348Z,0.33
2023-02-04T18:17:36.063Z,0.33
2023-02-04T18:19:15.839Z,0.33
2023-02-04T18:20:55.613Z,0.31
2023-02-04T18:22:35.375Z,0.34
2023-02-04T18:24:15.155Z,0.33
2023-02-04T18:25:54.899Z,0.35
2023-02-04T18:27:34.692Z,0.33
2023-02-04T18:29:14.436Z,0.32
2023-02-04T18:30:54.188Z,0.36
2023-02-04T18:32:34.035Z,0.33
2023-02-04T18:34:13.729Z,0.37
2023-02-04T18:35:53.526Z,0.37
2023-02-04T18:37:33.339Z,0.36
2023-02-04T18:39:13.035Z,0.37
2023-02-04T18:40:52.802Z,0.35
2023-02-04T18:42:32.568Z,0.36
2023-02-04T18:44:12.326Z,0.35
2023-02-04T18:45:52.111Z,0.36
2023-02-04T18:47:31.861Z,0.39
2023-02-04T18:49:11.632Z,0.36
2023-02-04T18:50:51.402Z,0.35
2023-02-04T18:52:31.166Z,0.39
2023-02-04T18:54:11.014Z,0.39
2023-02-04T18:55:50.706Z,0.35
2023-02-04T18:57:30.473Z,0.35
2023-02-04T18:59:10.450Z,0.37
2023-02-04T19:00:50.053Z,0.37
2023-02-04T19:02:29.780Z,0.36
2023-02-04T19:04:09.542Z,0.38
2023-02-04T19:05:49.308Z,0.37
2023-02-04T19:07:29.071Z,0.39
2023-02-04T19:09:08.836Z,0.4
2023-02-04T19:10:48.614Z,0.41
2023-02-04T19:12:28.362Z,0.41
2023-02-04T19:14:08.145Z,0.39
2023-02-04T19:15:47.923Z,0.38
2023-02-04T19:17:27.671Z,0.42
2023-02-04T19:19:07.438Z,0.42
2023-02-04T19:20:47.214Z,0.39
2023-02-04T19:22:26.973Z,0.42
2023-02-04T19:24:06.728Z,0.42
2023-02-04T19:25:46.510Z,0.44
2023-02-04T19:27:26.270Z,0.44
2023-02-04T19:29:06.039Z,0.44
2023-02-04T19:30:45.871Z,0.43
2023-02-04T19:32:25.577Z,0.41
2023-02-04T19:34:05.335Z,0.41
2023-02-04T19:35:45.108Z,0.46
2023-02-04T19:37:24.878Z,0.41
2023-02-04T19:39:04.647Z,0.43
2023-02-04T19:40:44.413Z,0.45
2023-02-04T19:42:24.189Z,0.46
2023-02-04T19:44:03.956Z,0.44
2023-02-04T19:45:43.725Z,0.46
2023-02-04T19:47:23.493Z,0.42
2023-02-04T19:49:03.260Z,0.46
2023-02-04T19:50:43.029Z,0.43
2023-02-04T19:52:22.791Z,0.42
2023-02-04T19:54:02.562Z,0.47
2023-02-04T19:55:42.326Z,0.45
2023-02-04T19:57:22.089Z,0.47
2023-02-04T19:59:01.954Z,0.45
2023-02-04T20:00:41.626Z,0.48
2023-02-04T20:02:21.400Z,0.46
2023-02-04T20:04:01.201Z,0.48
2023-02-04T20:05:40.936Z,0.49
2023-02-04T20:07:20.695Z,0.44
2023-02-04T20:09:00.459Z,0.45
2023-02-04T20:10:40.224Z,0.45
2023-02-04T20:12:20.008Z,0.49
2023-02-04T20:13:59.771Z,0.49
2023-02-04T20:15:39.534Z,0.46
2023-02-04T20:17:19.302Z,0.48
2023-02-04T20:18:59.064Z,0.5
2023-02-04T20:20:38.831Z,0.5
2023-02-04T20:22:18.597Z,0.48
2023-02-04T20:23:58.360Z,0.47
2023-02-04T20:25:38.133Z,0.48
2023-02-04T20:27:17.916Z,0.46
2023-02-04T20:28:57.674Z,0.51
2023-02-04T20:30:37.436Z,0.47
2023-02-04T20:32:17.197Z,0.49
2023-02-04T20:33:56.970Z,0.48
2023-02-04T20:35:36.730Z,0.51
2023-02-04T20:37:16.497Z,0.52
2023-02-04T20:38:56.276Z,0.48
2023-02-04T20:40:36.042Z,0.49
2023-02-04T20:42:15.802Z,0.49
2023-02-04T20:43:55.570Z,0.48
2023-02-04T20:45:35.343Z,0.52
2023-02-04T20:47:15.102Z,0.52
2023-02-04T20:48:54.874Z,0.54
2023-02-04T20:50:34.643Z,0.49
2023-02-04T20:52:14.401Z,0.52
2023-02-04T20:53:54.170Z,0.55
2023-02-04T20:55:33.948Z,0.51
2023-02-04T20:57:13.718Z,0.51
2023-02-04T20:58:53.470Z,0.5
2023-02-04T21:00:33.243Z,0.51
2023-02-04T21:02:13.009Z,0.51
2023-02-04T21:03:52.818Z,0.52
2023-02-04T21:05:32.547Z,0.51
2023-02-04T21:07:12.310Z,0.54
2023-02-04T21:08:52.081Z,0.51
2023-02-04T21:10:31.854Z,0.56
2023-02-04T21:12:11.642Z,0.56
2023-02-04T21:13:51.470Z,0.52
2023-02-04T21:15:31.149Z,0.52
2023-02-04T21:17:10.927Z,0.52
2023-02-04T21:18:50.703Z,0.52
2023-02-04T21:20:30.447Z,0.55
2023-02-04T21:22:10.217Z,0.55
2023-02-04T21:23:49.972Z,0.54
2023-02-04T21:25:29.752Z,0.56
2023-02-04T21:27:09.582Z,0.56
2023-02-04T21:28:49.290Z,0.56
2023-02-04T21:30:29.051Z,0.54
2023-02-04T21:32:08.884Z,0.55
2023-02-04T21:33:48.595Z,0.55
2023-02-04T21:35:28.365Z,0.57
2023-02-04T21:37:08.108Z,0.54
2023-02-04T21:38:47.873Z,0.58
2023-02-04T21:40:27.660Z,0.55
2023-02-04T21:42:07.425Z,0.54
2023-02-04T21:43:47.209Z,0.57
2023-02-04T21:45:26.966Z,0.55
2023-02-04T21:47:06.742Z,0.54
2023-02-04T21:48:46.490Z,0.56
2023-02-04T21:50:26.256Z,0.52
2023-02-04T21:52:06.045Z,0.56